Time;durP1;ratioP1;P1;durP2;ratioP2;P2;SDS_P1;SDS_P2;PMS_P1;PMS_P2;Temp;Humidity;BMP_temperature;BMP_pressure;BME280_temperature;BME280_humidity;BME280_pressure;Samples;Min_cycle;Max_cycle;Signal;HPM_P1;HPM_P2
2021/08/30 00:00:25;;;;;;;2.17;2.03;;;;;;;14.98;100.00;95377.47;5008815;28;20218;-87
2021/08/30 00:02:52;;;;;;;2.30;2.10;;;;;;;14.95;100.00;95377.88;5009103;28;20286;-88
2021/08/30 00:05:19;;;;;;;2.33;2.13;;;;;;;14.88;100.00;95369.34;5009055;28;20198;-87
2021/08/30 00:07:49;;;;;;;2.47;2.27;;;;;;;14.88;100.00;95373.72;5008827;28;20261;-88
2021/08/30 00:10:19;;;;;;;2.30;1.97;;;;;;;14.88;100.00;95369.34;5008065;28;20226;-87
2021/08/30 00:12:50;;;;;;;2.17;2.03;;;;;;;14.92;100.00;95365.34;5008784;28;20202;-87
2021/08/30 00:15:18;;;;;;;2.23;2.03;;;;;;;14.84;100.00;95361.19;5008659;28;20654;-88
2021/08/30 00:18:00;;;;;;;2.03;1.93;;;;;;;14.89;100.00;95367.53;5008970;28;20202;-88
2021/08/30 00:20:32;;;;;;;1.87;1.67;;;;;;;14.93;100.00;95364.34;5010451;28;20219;-87
2021/08/30 00:22:59;;;;;;;2.10;1.90;;;;;;;14.94;100.00;95365.94;5012728;28;20203;-89
2021/08/30 00:25:42;;;;;;;3.50;1.67;;;;;;;14.98;100.00;95364.50;5012848;28;20231;-87
2021/08/30 00:28:12;;;;;;;1.83;1.73;;;;;;;15.03;100.00;95361.28;5009851;28;20230;-87
2021/08/30 00:30:38;;;;;;;3.30;1.97;;;;;;;15.01;100.00;95353.69;5012114;28;20254;-88
2021/08/30 00:33:05;;;;;;;1.90;1.70;;;;;;;15.01;100.00;95363.31;5012299;28;20196;-88
2021/08/30 00:35:37;;;;;;;2.00;1.90;;;;;;;14.99;100.00;95362.72;5012922;28;20545;-88
2021/08/30 00:38:08;;;;;;;1.90;1.80;;;;;;;15.03;100.00;95356.09;5012482;28;20218;-87
2021/08/30 00:40:35;;;;;;;1.90;1.80;;;;;;;15.02;100.00;95355.28;5011923;28;20302;-87
2021/08/30 00:43:09;;;;;;;2.03;1.83;;;;;;;14.96;100.00;95347.56;5012751;28;20234;-88
2021/08/30 00:45:43;;;;;;;2.00;1.87;;;;;;;14.91;100.00;95348.19;5012051;28;20249;-89
2021/08/30 00:48:10;;;;;;;1.80;1.70;;;;;;;14.97;100.00;95346.56;5011238;28;20213;-88
2021/08/30 00:50:37;;;;;;;1.80;1.70;;;;;;;14.88;100.00;95347.81;5011155;28;20234;-87
2021/08/30 00:53:14;;;;;;;1.80;1.70;;;;;;;14.84;100.00;95343.03;5011986;28;20202;-87
2021/08/30 00:55:48;;;;;;;2.00;1.90;;;;;;;14.88;100.00;95351.19;5012074;28;20591;-87
2021/08/30 00:58:15;;;;;;;2.20;2.00;;;;;;;14.86;100.00;95348.81;5011725;28;20261;-87
2021/08/30 01:00:48;;;;;;;1.90;1.80;;;;;;;14.84;100.00;95350.00;5012078;28;20276;-87
2021/08/30 01:03:18;;;;;;;1.87;1.77;;;;;;;14.86;100.00;95351.41;5012841;28;20758;-88
2021/08/30 01:05:55;;;;;;;2.13;2.03;;;;;;;14.88;100.00;95347.81;5012650;28;20623;-87
2021/08/30 01:08:35;;;;;;;2.03;1.87;;;;;;;14.87;100.00;95349.59;5010662;28;20288;-89
2021/08/30 01:11:09;;;;;;;2.50;2.00;;;;;;;14.77;100.00;95344.88;5006418;28;20689;-88
2021/08/30 01:13:45;;;;;;;1.90;1.80;;;;;;;14.82;100.00;95342.44;4998009;28;20195;-87
2021/08/30 01:16:16;;;;;;;2.10;2.00;;;;;;;14.88;100.00;95334.84;5012156;28;20279;-88
2021/08/30 01:18:49;;;;;;;2.20;2.10;;;;;;;14.83;100.00;95341.44;5011715;28;20617;-88
2021/08/30 01:24:16;;;;;;;1.83;1.73;;;;;;;14.77;100.00;95333.72;4989772;28;20199;-88
2021/08/30 01:26:49;;;;;;;1.83;1.73;;;;;;;14.77;100.00;95334.53;4992201;28;20195;-87
2021/08/30 01:29:21;;;;;;;2.20;2.00;;;;;;;14.80;100.00;95328.13;4991549;28;20243;-87
2021/08/30 01:31:59;;;;;;;2.20;2.10;;;;;;;14.77;100.00;95334.53;5006407;28;20210;-88
2021/08/30 01:34:30;;;;;;;3.30;2.27;;;;;;;14.75;100.00;95336.53;5012314;28;20290;-87
2021/08/30 01:36:58;;;;;;;2.60;2.40;;;;;;;14.68;100.00;95337.56;5012202;28;20709;-88
2021/08/30 01:39:30;;;;;;;2.30;2.10;;;;;;;14.75;100.00;95330.53;5011966;28;20219;-87
2021/08/30 01:41:57;;;;;;;4.07;2.50;;;;;;;14.80;100.00;95330.72;4992033;28;20306;-88
2021/08/30 01:44:24;;;;;;;2.30;2.10;;;;;;;14.84;100.00;95331.88;4992418;28;20259;-87
2021/08/30 01:46:54;;;;;;;2.40;2.20;;;;;;;14.80;100.00;95335.91;4992375;28;20191;-88
2021/08/30 01:49:29;;;;;;;2.33;2.17;;;;;;;14.77;100.00;95337.13;5009940;28;20230;-88
2021/08/30 01:51:57;;;;;;;2.20;2.00;;;;;;;14.77;100.00;95331.13;5011617;28;20191;-88
2021/08/30 01:54:28;;;;;;;2.30;2.10;;;;;;;14.77;100.00;95338.91;5011119;28;20201;-88
2021/08/30 01:56:58;;;;;;;2.40;2.20;;;;;;;14.76;100.00;95326.97;5011962;28;20203;-87
2021/08/30 02:02:16;;;;;;;3.20;2.10;;;;;;;14.76;100.00;95332.94;5011672;28;20198;-87
2021/08/30 02:04:47;;;;;;;2.37;2.10;;;;;;;14.73;100.00;95327.38;5011440;28;20183;-88
2021/08/30 02:07:15;;;;;;;2.50;2.30;;;;;;;14.68;100.00;95327.19;5011285;28;20215;-88
2021/08/30 02:09:43;;;;;;;2.63;2.00;;;;;;;14.69;100.00;95315.81;5010901;28;20309;-87
2021/08/30 02:12:13;;;;;;;3.17;2.20;;;;;;;14.66;100.00;95324.81;5011352;28;20203;-87
2021/08/30 02:14:42;;;;;;;2.13;1.93;;;;;;;14.63;100.00;95319.22;5010781;28;20203;-88
2021/08/30 02:17:16;;;;;;;2.30;2.10;;;;;;;14.69;100.00;95326.97;5010887;28;20203;-88
2021/08/30 02:19:55;;;;;;;3.77;2.20;;;;;;;14.72;100.00;95312.81;5010445;28;20653;-87
2021/08/30 02:22:28;;;;;;;3.57;2.30;;;;;;;14.68;100.00;95314.22;5011639;28;20289;-88
2021/08/30 02:25:01;;;;;;;2.93;2.20;;;;;;;14.65;100.00;95307.66;5010985;28;20211;-87
2021/08/30 02:27:30;;;;;;;2.53;2.00;;;;;;;14.69;100.00;95313.22;5011279;28;20199;-87
2021/08/30 02:30:09;;;;;;;2.30;1.90;;;;;;;14.65;100.00;95307.66;5010772;28;20233;-87
2021/08/30 02:32:40;;;;;;;3.10;2.30;;;;;;;14.68;100.00;95315.03;4990959;28;20203;-87
2021/08/30 02:35:10;;;;;;;3.00;2.37;;;;;;;14.69;100.00;95313.22;4992100;28;20191;-88
2021/08/30 02:37:39;;;;;;;2.53;2.33;;;;;;;14.72;100.00;95305.03;4992362;28;20202;-87
2021/08/30 02:40:14;;;;;;;2.70;2.50;;;;;;;14.72;100.00;95310.22;4997567;28;20793;-88
2021/08/30 02:42:41;;;;;;;3.07;2.33;;;;;;;14.71;100.00;95301.66;5012154;28;20309;-87
2021/08/30 02:45:12;;;;;;;2.67;2.47;;;;;;;14.77;100.00;95305.22;5013355;28;20352;-87
2021/08/30 02:47:42;;;;;;;2.60;2.40;;;;;;;14.77;100.00;95303.41;5015315;28;20206;-87
2021/08/30 02:50:15;;;;;;;2.87;2.30;;;;;;;14.80;100.00;95303.00;5013979;28;20676;-87
2021/08/30 02:52:42;;;;;;;2.37;2.17;;;;;;;14.79;100.00;95298.03;5012177;28;20199;-87
2021/08/30 02:55:11;;;;;;;2.57;2.30;;;;;;;14.70;100.00;95291.50;5012610;28;20194;-87
2021/08/30 02:57:41;;;;;;;2.77;2.30;;;;;;;14.74;100.00;95292.69;5012077;28;20611;-89
2021/08/30 03:00:12;;;;;;;2.43;2.20;;;;;;;14.73;100.00;95293.69;5011841;28;20231;-86
2021/08/30 03:02:39;;;;;;;2.97;2.77;;;;;;;14.69;100.00;95285.53;5012034;28;20213;-88
2021/08/30 03:05:06;;;;;;;2.90;2.70;;;;;;;14.65;100.00;95289.53;5010530;28;20222;-87
2021/08/30 03:07:36;;;;;;;3.17;2.40;;;;;;;14.69;100.00;95284.72;5010191;28;20209;-87
2021/08/30 03:10:03;;;;;;;2.70;2.50;;;;;;;14.66;100.00;95279.97;5009633;28;20226;-88
2021/08/30 03:12:35;;;;;;;2.67;2.47;;;;;;;14.70;100.00;95281.13;5008756;28;20202;-87
2021/08/30 03:15:07;;;;;;;2.40;2.17;;;;;;;14.76;100.00;95281.09;5009819;28;20278;-86
2021/08/30 03:17:37;;;;;;;2.87;2.57;;;;;;;14.81;100.00;95285.66;5010108;28;20257;-87
2021/08/30 03:20:07;;;;;;;3.13;2.67;;;;;;;14.68;100.00;95278.75;5009275;28;20246;-88
2021/08/30 03:22:36;;;;;;;2.93;2.73;;;;;;;14.71;100.00;95277.53;5010494;28;20202;-87
2021/08/30 03:25:09;;;;;;;2.87;2.67;;;;;;;14.64;100.00;95277.56;5010178;28;20865;-87
2021/08/30 03:27:35;;;;;;;2.80;2.60;;;;;;;14.67;100.00;95271.19;5010127;28;20199;-87
2021/08/30 03:30:08;;;;;;;3.30;2.80;;;;;;;14.73;100.00;95268.56;5009385;28;20223;-87
2021/08/30 03:32:38;;;;;;;3.37;2.60;;;;;;;14.62;100.00;95266.66;5009927;28;20258;-87
2021/08/30 03:35:06;;;;;;;2.60;2.40;;;;;;;14.57;100.00;95261.28;5010573;28;20198;-87
2021/08/30 03:37:33;;;;;;;5.80;2.60;;;;;;;14.60;100.00;95268.66;5010481;28;20199;-87
2021/08/30 03:40:03;;;;;;;3.47;2.57;;;;;;;14.65;100.00;95260.22;5009386;28;20314;-88
2021/08/30 03:42:31;;;;;;;2.63;2.43;;;;;;;14.71;100.00;95257.59;5009973;28;20217;-87
2021/08/30 03:44:58;;;;;;;3.53;2.63;;;;;;;14.64;100.00;95271.59;5009468;28;20393;-87
2021/08/30 03:47:25;;;;;;;5.10;2.53;;;;;;;14.55;100.00;95267.69;5009856;28;20646;-87
2021/08/30 03:49:54;;;;;;;2.70;2.50;;;;;;;14.60;100.00;95266.06;5008815;28;20231;-87
2021/08/30 03:52:26;;;;;;;3.00;2.70;;;;;;;14.61;100.00;95270.25;5009071;28;20230;-87
2021/08/30 03:54:55;;;;;;;2.73;2.53;;;;;;;14.60;100.00;95266.06;5005974;28;20264;-87
2021/08/30 03:57:26;;;;;;;4.00;2.60;;;;;;;14.54;100.00;95268.69;5009564;28;20195;-88
2021/08/30 03:59:55;;;;;;;2.63;2.43;;;;;;;14.57;100.00;95269.06;5009460;28;20297;-87
2021/08/30 04:02:24;;;;;;;4.20;2.60;;;;;;;14.66;100.00;95267.78;5009719;28;20293;-87
2021/08/30 04:04:54;;;;;;;2.40;2.20;;;;;;;14.67;100.00;95269.38;5009699;28;20225;-88
2021/08/30 04:07:22;;;;;;;3.00;2.70;;;;;;;14.66;100.00;95272.97;5010929;28;20203;-87
2021/08/30 04:09:50;;;;;;;2.60;2.40;;;;;;;14.61;100.00;95274.63;5014216;28;20241;-86
2021/08/30 04:12:18;;;;;;;2.23;2.03;;;;;;;14.52;100.00;95261.91;5011289;28;20191;-88
2021/08/30 04:14:47;;;;;;;2.77;2.30;;;;;;;14.60;100.00;95260.09;4999455;28;20258;-86
2021/08/30 04:17:14;;;;;;;1.93;1.83;;;;;;;14.63;100.00;95254.47;4996475;28;20260;-89
2021/08/30 04:19:43;;;;;;;2.17;2.00;;;;;;;14.60;100.00;95247.13;5001389;28;20223;-88
2021/08/30 04:22:17;;;;;;;2.20;2.00;;;;;;;14.60;100.00;95240.16;5019449;28;20213;-88
2021/08/30 04:24:44;;;;;;;1.77;1.67;;;;;;;14.63;100.00;95244.88;5017692;28;20206;-88
2021/08/30 04:27:13;;;;;;;2.20;2.00;;;;;;;14.61;100.00;95240.94;5024562;28;20555;-86
2021/08/30 04:29:39;;;;;;;2.03;1.87;;;;;;;14.52;100.00;95233.41;5017096;28;20282;-87
2021/08/30 04:32:13;;;;;;;1.90;1.70;;;;;;;14.42;100.00;95233.09;5024403;28;20234;-86
2021/08/30 04:34:41;;;;;;;1.80;1.70;;;;;;;14.41;100.00;95238.47;5024850;28;20417;-87
2021/08/30 04:37:11;;;;;;;2.20;2.00;;;;;;;14.44;100.00;95236.25;5025794;28;20259;-87
2021/08/30 04:39:38;;;;;;;2.07;1.87;;;;;;;14.48;100.00;95240.00;5023536;28;20314;-87
2021/08/30 04:42:05;;;;;;;1.53;1.43;;;;;;;14.56;100.00;95243.34;5025045;28;20187;-87
2021/08/30 04:44:35;;;;;;;1.90;1.40;;;;;;;14.55;100.00;95232.19;5025345;28;20211;-86
2021/08/30 04:47:06;;;;;;;2.83;1.80;;;;;;;14.62;100.00;95235.56;5005539;28;20211;-86
2021/08/30 04:49:34;;;;;;;2.03;1.83;;;;;;;14.50;100.00;95234.63;5020762;28;20420;-86
2021/08/30 04:52:02;;;;;;;1.73;1.63;;;;;;;14.53;100.00;95241.97;5014554;28;20280;-87
2021/08/30 04:54:28;;;;;;;2.83;2.00;;;;;;;14.58;100.00;95236.19;5006622;28;20199;-86
2021/08/30 04:56:55;;;;;;;2.00;1.80;;;;;;;14.54;100.00;95240.19;4996054;28;20279;-86
2021/08/30 04:59:22;;;;;;;1.77;1.67;;;;;;;14.49;100.00;95233.03;4996550;28;20311;-86
2021/08/30 05:01:48;;;;;;;3.13;2.00;;;;;;;14.45;100.00;95232.66;5024617;28;20268;-86
2021/08/30 05:04:16;;;;;;;3.50;3.20;;;;;;;14.44;100.00;95225.88;5029050;28;20200;-88
2021/08/30 05:06:45;;;;;;;2.17;1.97;;;;;;;14.47;100.00;95225.47;5018934;28;20206;-88
2021/08/30 05:09:14;;;;;;;2.40;2.20;;;;;;;14.40;100.00;95221.31;5022232;28;20230;-87
2021/08/30 05:11:41;;;;;;;2.07;1.77;;;;;;;14.37;100.00;95235.47;5007283;28;20265;-87
2021/08/30 05:14:09;;;;;;;1.90;1.80;;;;;;;14.33;100.00;95218.75;5011009;28;20685;-86
2021/08/30 05:16:40;;;;;;;1.97;1.77;;;;;;;14.29;100.00;95219.38;5011053;28;20226;-86
2021/08/30 05:19:07;;;;;;;2.07;1.70;;;;;;;14.20;100.00;95215.44;5007440;28;20224;-87
2021/08/30 05:21:33;;;;;;;1.97;1.80;;;;;;;14.09;100.00;95222.06;5003766;28;20235;-86
2021/08/30 05:24:02;;;;;;;2.17;1.97;;;;;;;14.17;100.00;95217.44;5005722;28;20211;-87
2021/08/30 05:26:28;;;;;;;3.60;3.00;;;;;;;14.22;100.00;95218.63;5012305;28;20195;-88
2021/08/30 05:28:55;;;;;;;4.77;4.13;;;;;;;14.32;100.00;95218.97;5012443;28;20709;-87
2021/08/30 05:31:22;;;;;;;3.20;1.77;;;;;;;14.29;100.00;95209.81;5012695;28;20210;-86
2021/08/30 05:33:48;;;;;;;2.20;2.00;;;;;;;14.33;100.00;95215.38;5012500;28;20210;-87
2021/08/30 05:36:18;;;;;;;1.90;1.70;;;;;;;14.35;100.00;95206.41;5012495;28;20228;-87
2021/08/30 05:38:47;;;;;;;1.87;1.77;;;;;;;14.35;100.00;95213.38;5012504;28;20206;-87
2021/08/30 05:41:21;;;;;;;1.70;1.60;;;;;;;14.32;100.00;95204.22;5012133;28;20223;-87
2021/08/30 05:43:48;;;;;;;2.63;1.90;;;;;;;14.33;100.00;95202.41;5012859;28;20230;-86
2021/08/30 05:46:18;;;;;;;1.70;1.60;;;;;;;14.36;100.00;95210.56;5012250;28;20978;-87
2021/08/30 05:48:47;;;;;;;2.00;1.70;;;;;;;14.37;100.00;95212.16;5011690;28;20281;-87
2021/08/30 05:51:14;;;;;;;1.83;1.50;;;;;;;14.32;100.00;95206.00;5008249;28;20317;-86
2021/08/30 05:53:41;;;;;;;1.50;1.40;;;;;;;14.21;100.00;95202.31;5011314;28;20249;-85
2021/08/30 05:56:08;;;;;;;1.50;1.40;;;;;;;14.17;100.00;95203.72;5011067;28;20203;-85
2021/08/30 05:58:37;;;;;;;1.63;1.53;;;;;;;14.13;100.00;95202.53;5011284;28;20349;-87
2021/08/30 06:01:04;;;;;;;1.77;1.50;;;;;;;14.26;100.00;95194.69;5010985;28;20223;-87
2021/08/30 06:03:31;;;;;;;1.70;1.60;;;;;;;14.29;100.00;95196.06;5017914;28;20283;-86
2021/08/30 06:05:58;;;;;;;1.50;1.40;;;;;;;14.22;100.00;95190.94;5031499;28;20198;-87
2021/08/30 06:08:25;;;;;;;1.50;1.40;;;;;;;14.17;100.00;95203.72;5031126;28;20229;-86
2021/08/30 06:10:55;;;;;;;1.30;1.20;;;;;;;14.11;100.00;95194.19;5030028;28;20232;-86
2021/08/30 06:13:22;;;;;;;1.63;1.53;;;;;;;14.23;100.00;95200.31;5031119;28;20836;-87
2021/08/30 06:15:50;;;;;;;1.83;1.33;;;;;;;14.18;100.00;95189.78;5007019;28;20291;-85
2021/08/30 06:18:17;;;;;;;2.60;2.40;;;;;;;14.14;100.00;95191.19;4990905;28;20225;-87
2021/08/30 06:20:43;;;;;;;1.73;1.60;;;;;;;14.22;100.00;95198.72;4990733;28;20224;-86
2021/08/30 06:23:10;;;;;;;1.40;1.30;;;;;;;14.19;100.00;95199.13;4990968;28;20215;-86
2021/08/30 06:25:37;;;;;;;1.37;1.20;;;;;;;14.24;100.00;95199.28;5022662;28;20206;-87
2021/08/30 06:28:05;;;;;;;1.40;1.30;;;;;;;14.26;100.00;95209.44;5029816;28;20202;-87
2021/08/30 06:30:35;;;;;;;1.67;1.40;;;;;;;14.31;100.00;95212.19;5025278;28;20226;-87
2021/08/30 06:33:06;;;;;;;1.40;1.30;;;;;;;14.30;100.00;95208.00;5009706;28;20578;-86
2021/08/30 06:35:33;;;;;;;1.87;1.27;;;;;;;14.35;100.00;95211.56;5009872;28;20459;-85
2021/08/30 06:38:00;;;;;;;1.30;1.20;;;;;;;14.33;100.00;95213.56;5007880;28;20291;-87
2021/08/30 06:40:26;;;;;;;1.43;1.33;;;;;;;14.35;100.00;95215.97;5006082;28;20223;-87
2021/08/30 06:42:59;;;;;;;1.20;1.10;;;;;;;14.40;100.00;95210.94;5005979;28;20275;-87
2021/08/30 06:45:29;;;;;;;1.43;1.33;;;;;;;14.50;100.00;95222.47;5019950;28;20614;-87
2021/08/30 06:47:56;;;;;;;2.07;1.30;;;;;;;14.49;100.00;95218.28;5010229;28;20362;-87
2021/08/30 06:50:27;;;;;;;2.27;1.30;;;;;;;14.54;100.00;95219.47;5008485;28;20234;-87
2021/08/30 06:52:57;;;;;;;1.40;1.30;;;;;;;14.54;100.00;95215.06;5009850;28;20199;-85
2021/08/30 06:55:26;;;;;;;1.57;1.20;;;;;;;14.56;100.00;95217.44;5009675;28;20206;-86
2021/08/30 06:58:09;;;;;;;1.13;1.00;;;;;;;14.50;100.00;95219.06;5010327;28;20207;-87
2021/08/30 07:00:37;;;;;;;1.43;1.10;;;;;;;14.57;100.00;95240.56;5005461;28;20289;-86
2021/08/30 07:03:08;;;;;;;1.10;1.00;;;;;;;14.59;100.00;95250.72;4990616;28;20274;-87
2021/08/30 07:05:39;;;;;;;1.93;1.00;;;;;;;14.57;100.00;95240.56;4991208;28;20204;-87
2021/08/30 07:08:09;;;;;;;1.07;0.97;;;;;;;14.49;100.00;95251.97;4991839;28;20291;-86
2021/08/30 07:10:38;;;;;;;22.13;19.87;;;;;;;14.54;100.00;95259.13;4998816;28;20254;-86
2021/08/30 07:13:07;;;;;;;4.93;4.50;;;;;;;14.53;100.00;95260.13;5013288;28;20209;-86
2021/08/30 07:15:52;;;;;;;;;;;;;;;;;;;;;
2021/08/30 07:18:19;;;;;;;1.10;0.80;;;;;;;14.63;100.00;95263.03;5013153;28;20217;-87
2021/08/30 07:20:50;;;;;;;0.80;0.60;;;;;;;14.71;100.00;95267.97;5012610;28;20225;-86
2021/08/30 07:23:18;;;;;;;0.60;0.60;;;;;;;14.70;100.00;95271.56;5013238;28;20202;-86
2021/08/30 07:25:48;;;;;;;0.70;0.70;;;;;;;14.69;100.00;95272.56;5016319;28;20210;-87
2021/08/30 07:28:14;;;;;;;1.50;1.30;;;;;;;14.69;100.00;95277.75;5009380;28;20242;-89
2021/08/30 07:30:41;;;;;;;2.93;1.50;;;;;;;14.68;100.00;95276.16;5007999;28;20242;-87
2021/08/30 07:33:09;;;;;;;0.77;0.77;;;;;;;14.69;100.00;95282.13;5008909;28;20206;-87
2021/08/30 07:35:36;;;;;;;1.87;0.87;;;;;;;14.71;100.00;95282.72;5026432;28;20206;-87
2021/08/30 07:38:06;;;;;;;0.73;0.73;;;;;;;14.74;100.00;95288.28;5026240;28;20248;-88
2021/08/30 07:40:34;;;;;;;0.80;0.80;;;;;;;14.77;100.00;95279.31;5009132;28;20222;-87
2021/08/30 07:43:00;;;;;;;0.70;0.70;;;;;;;14.77;100.00;95287.06;5009399;28;20210;-87
2021/08/30 07:45:27;;;;;;;0.67;0.67;;;;;;;14.85;100.00;95287.59;5008515;28;20205;-88
2021/08/30 07:48:04;;;;;;;0.80;0.80;;;;;;;14.89;100.00;95295.75;5010959;28;20297;-86
2021/08/30 07:50:37;;;;;;;2.47;0.90;;;;;;;14.92;100.00;95295.34;5009171;28;20245;-86
2021/08/30 07:53:26;;;;;;;2.27;1.00;;;;;;;14.98;100.00;95298.91;5010051;28;20198;-87
2021/08/30 07:56:06;;;;;;;3.80;1.37;;;;;;;14.98;100.00;95304.09;5010685;28;20200;-87
2021/08/30 07:58:32;;;;;;;5.20;1.30;;;;;;;15.00;100.00;95302.09;5009569;28;20207;-87
2021/08/30 08:01:02;;;;;;;2.50;1.40;;;;;;;15.02;100.00;95303.44;5009610;28;20222;-85
2021/08/30 08:03:32;;;;;;;2.53;2.33;;;;;;;15.07;100.00;95313.19;5011375;28;20229;-85
2021/08/30 08:06:43;;;;;;;;;;;;;;;;;;;;;
2021/08/30 08:09:24;;;;;;;1.80;1.70;;;;;;;15.11;100.00;95322.13;4947524;29;20212;-87
2021/08/30 08:11:51;;;;;;;2.90;1.20;;;;;;;15.12;100.00;95326.31;4948818;29;20208;-86
2021/08/30 08:14:36;;;;;;;1.00;0.90;;;;;;;15.17;100.00;95321.31;4985581;28;20284;-86
2021/08/30 08:17:13;;;;;;;1.47;1.03;;;;;;;15.27;100.00;95328.59;5009331;28;20797;-87
2021/08/30 08:19:44;;;;;;;1.10;1.10;;;;;;;15.29;100.00;95329.97;5006885;28;20688;-86
2021/08/30 08:22:14;;;;;;;1.23;1.20;;;;;;;15.40;100.00;95337.06;5008972;28;20293;-87
2021/08/30 08:24:44;;;;;;;1.10;1.10;;;;;;;15.49;100.00;95337.59;5020898;28;20206;-87
2021/08/30 08:27:11;;;;;;;1.40;1.30;;;;;;;15.66;100.00;95343.06;5008607;28;20238;-86
2021/08/30 08:44:16;;;;;;;1.40;1.30;;;;;;;15.51;100.00;95341.56;5031044;28;20731;-87
2021/08/30 08:46:52;;;;;;;1.50;1.40;;;;;;;15.47;100.00;95345.59;5033976;28;20190;-87
2021/08/30 08:50:05;;;;;;;1.50;1.40;;;;;;;15.49;100.00;95350.56;5033037;28;20241;-87
2021/08/30 08:53:07;;;;;;;1.60;1.50;;;;;;;15.52;100.00;95361.31;5012906;28;20233;-87
2021/08/30 08:55:53;;;;;;;1.38;1.27;;;;;;;15.54;100.00;95367.09;4999077;28;20209;-87
2021/08/30 08:58:25;;;;;;;1.42;1.33;;;;;;;15.56;100.00;95368.72;5013952;28;20218;-87
2021/08/30 09:05:04;;;;;;;5.03;4.53;;;;;;;15.68;100.00;95369.59;4879759;29;20262;-87
2021/08/30 09:07:49;;;;;;;2.10;1.90;;;;;;;15.76;100.00;95371.94;5001183;28;20199;-86
2021/08/30 09:16:37;;;;;;;;;;;;;;;;;;;;;
2021/08/30 09:21:54;;;;;;;1.40;1.13;;;;;;;15.89;100.00;95388.19;5005914;28;20202;-88
2021/08/30 09:27:51;;;;;;;0.90;0.90;;;;;;;16.35;100.00;95392.13;5010198;28;20289;-87
2021/08/30 09:31:13;;;;;;;;;;;;;;;;;;;;;
2021/08/30 09:33:52;;;;;;;1.00;0.80;;;;;;;16.39;100.00;95390.66;4977010;28;20207;-88
2021/08/30 09:37:05;;;;;;;1.58;1.02;;;;;;;16.28;100.00;95390.59;4993665;28;20235;-87
2021/08/30 09:39:52;;;;;;;2.67;1.00;;;;;;;16.14;100.00;95395.94;4947387;28;20253;-88
2021/08/30 09:42:19;;;;;;;1.65;1.05;;;;;;;16.16;100.00;95385.34;4980781;28;20291;-88
2021/08/30 09:44:55;;;;;;;1.00;0.95;;;;;;;16.23;100.00;95386.03;4973268;28;20223;-87
2021/08/30 09:47:26;;;;;;;1.00;1.00;;;;;;;16.15;100.00;95392.34;4992153;28;20757;-88
2021/08/30 09:49:56;;;;;;;3.78;3.13;;;;;;;16.18;100.00;95391.88;4981137;28;20635;-86
2021/08/30 09:53:04;;;;;;;1.38;1.27;;;;;;;16.22;100.00;95382.66;4990099;28;20266;-89
2021/08/30 10:02:09;;;;;;;2.15;1.55;;;;;;;16.64;98.65;95382.00;4990528;28;20218;-88
2021/08/30 10:12:18;;;;;;;1.42;1.10;;;;;;;16.48;98.26;95388.56;4876813;29;20245;-89
2021/08/30 10:38:56;;;;;;;;;;;;;;;;;;;;;
2021/08/30 10:41:55;;;;;;;2.80;1.20;;;;;;;16.52;100.00;95407.91;4910953;29;20226;-89
2021/08/30 10:44:27;;;;;;;1.35;1.05;;;;;;;16.44;99.38;95406.41;4911451;29;20202;-90
2021/08/30 10:47:24;;;;;;;1.85;1.00;;;;;;;16.43;98.83;95404.00;4923204;28;20627;-89
2021/08/30 10:50:06;;;;;;;1.20;1.10;;;;;;;16.52;99.73;95413.13;4979636;28;20235;-89
2021/08/30 10:53:03;;;;;;;2.38;1.08;;;;;;;16.57;99.68;95406.25;4990208;28;20773;-90
2021/08/30 10:55:43;;;;;;;1.17;1.08;;;;;;;16.58;97.35;95413.03;5006641;28;20605;-87
2021/08/30 10:58:34;;;;;;;;;;;;;;;;;;;;;
2021/08/30 11:01:11;;;;;;;4.78;3.42;;;;;;;16.62;96.73;95413.38;5009677;28;20219;-89
2021/08/30 11:04:13;;;;;;;5.65;5.15;;;;;;;16.62;98.17;95412.59;5009851;28;20214;-90
2021/08/30 11:24:09;;;;;;;1.50;1.40;;;;;;;16.79;99.39;95432.63;4800216;29;20685;-88
2021/08/30 11:30:36;;;;;;;1.25;1.15;;;;;;;16.90;94.31;95431.88;4881349;29;20763;-88
2021/08/30 11:36:09;;;;;;;1.58;1.48;;;;;;;16.99;93.96;95419.34;4932059;28;20292;-88
2021/08/30 11:39:07;;;;;;;1.42;1.33;;;;;;;16.99;97.24;95429.75;4989694;28;20239;-89
2021/08/30 11:41:38;;;;;;;1.73;1.55;;;;;;;16.87;100.00;95437.53;4989122;28;20207;-89
2021/08/30 11:44:29;;;;;;;;;;;;;;;;;;;;;
2021/08/30 11:47:02;;;;;;;1.23;1.13;;;;;;;16.53;97.62;95446.69;4979801;28;20233;-88
2021/08/30 11:49:31;;;;;;;1.23;1.13;;;;;;;16.30;99.57;95449.13;4988519;28;20699;-89
2021/08/30 11:55:41;;;;;;;1.10;1.10;;;;;;;16.22;100.00;95460.59;4953472;28;20608;-88
2021/08/30 11:58:44;;;;;;;1.40;1.30;;;;;;;16.18;100.00;95456.81;4986534;28;20200;-89
2021/08/30 12:01:50;;;;;;;1.30;1.25;;;;;;;16.03;100.00;95453.75;4973689;28;20781;-88
2021/08/30 12:04:27;;;;;;;1.50;1.40;;;;;;;16.02;100.00;95462.56;4968135;28;20204;-89
2021/08/30 12:06:56;;;;;;;1.70;1.50;;;;;;;16.01;100.00;95463.56;4971921;28;20658;-89
2021/08/30 12:10:07;;;;;;;;;;;;;;;;;;;;;
2021/08/30 12:12:50;;;;;;;1.50;1.40;;;;;;;15.98;100.00;95468.38;4972213;28;20226;-89
2021/08/30 12:15:31;;;;;;;1.60;1.50;;;;;;;15.92;100.00;95461.47;4972130;28;20769;-90
2021/08/30 12:18:19;;;;;;;1.50;1.40;;;;;;;15.90;100.00;95472.06;4974090;28;20722;-89
2021/08/30 12:20:59;;;;;;;1.70;1.40;;;;;;;15.94;100.00;95475.03;4980835;28;20265;-89
2021/08/30 12:23:27;;;;;;;1.60;1.38;;;;;;;16.01;100.00;95476.56;4993605;28;20266;-90
2021/08/30 12:26:12;;;;;;;2.63;1.60;;;;;;;16.05;100.00;95479.53;4993739;28;20214;-89
2021/08/30 12:29:09;;;;;;;2.88;1.48;;;;;;;16.08;100.00;95479.91;4999642;28;20277;-89
2021/08/30 12:31:41;;;;;;;9.07;6.68;;;;;;;16.03;100.00;95476.34;4974510;28;20223;-89
2021/08/30 12:34:14;;;;;;;32.08;25.98;;;;;;;16.02;100.00;95479.94;4974256;28;20211;-89
2021/08/30 12:36:47;;;;;;;4.90;4.32;;;;;;;16.02;100.00;95483.34;4974284;28;20286;-88
2021/08/30 12:39:17;;;;;;;1.80;1.58;;;;;;;16.07;100.00;95474.91;4973759;28;20254;-89
2021/08/30 12:41:44;;;;;;;3.33;1.30;;;;;;;16.04;100.00;95483.94;4973657;28;20204;-89
2021/08/30 12:44:15;;;;;;;1.30;1.20;;;;;;;16.06;100.00;95474.13;5000887;28;20997;-89
2021/08/30 12:46:41;;;;;;;1.52;1.17;;;;;;;16.09;100.00;95475.50;4999290;28;20739;-88
2021/08/30 12:49:08;;;;;;;1.00;1.00;;;;;;;16.14;100.00;95473.06;4993497;28;20246;-89
2021/08/30 12:51:40;;;;;;;1.17;1.08;;;;;;;16.18;100.00;95472.41;4992165;28;20318;-89
2021/08/30 12:54:08;;;;;;;1.10;1.10;;;;;;;16.19;100.00;95468.81;5007217;28;20226;-89
2021/08/30 12:56:36;;;;;;;1.30;1.20;;;;;;;16.23;99.43;95467.38;5012913;28;20211;-89
2021/08/30 12:59:11;;;;;;;1.30;1.20;;;;;;;16.31;99.73;95474.09;5011827;28;20214;-89
2021/08/30 13:01:38;;;;;;;1.38;1.27;;;;;;;16.41;100.00;95474.38;5012182;28;20202;-88
2021/08/30 13:04:11;;;;;;;1.55;1.45;;;;;;;16.45;99.18;95475.56;4974923;28;20211;-91
2021/08/30 13:06:37;;;;;;;1.38;1.27;;;;;;;16.55;99.81;95473.25;4973156;28;20228;-88
2021/08/30 13:09:20;;;;;;;1.40;1.30;;;;;;;16.63;100.00;95472.19;4986237;28;20199;-90
2021/08/30 13:11:54;;;;;;;1.55;1.30;;;;;;;16.66;99.89;95476.19;4981938;28;20232;-89
2021/08/30 13:14:26;;;;;;;1.48;1.35;;;;;;;16.70;98.91;95470.34;4984597;28;20225;-89
2021/08/30 13:16:55;;;;;;;1.40;1.30;;;;;;;16.74;97.60;95466.25;4992893;28;20573;-89
2021/08/30 13:19:22;;;;;;;1.50;1.40;;;;;;;16.74;96.34;95471.47;4992377;28;20285;-88
2021/08/30 13:21:49;;;;;;;4.38;3.85;;;;;;;16.80;97.35;95470.59;4991962;28;20235;-89
2021/08/30 13:24:15;;;;;;;2.65;2.00;;;;;;;16.80;94.94;95468.00;4992552;28;20237;-89
2021/08/30 13:26:42;;;;;;;1.50;1.40;;;;;;;16.88;95.17;95472.13;5011356;28;20704;-89
2021/08/30 13:29:11;;;;;;;1.75;1.65;;;;;;;17.03;95.63;95469.16;5010672;28;20642;-89
2021/08/30 13:31:38;;;;;;;4.63;1.90;;;;;;;17.14;97.89;95469.19;4983147;28;20223;-89
2021/08/30 13:34:07;;;;;;;2.45;1.55;;;;;;;17.27;96.78;95469.03;4972486;28;20192;-89
2021/08/30 13:36:34;;;;;;;1.80;1.70;;;;;;;17.39;96.21;95468.28;4972523;28;20227;-89
2021/08/30 13:39:00;;;;;;;1.60;1.50;;;;;;;17.44;95.22;95469.19;4972608;28;20207;-89
2021/08/30 13:41:29;;;;;;;1.60;1.50;;;;;;;17.55;94.40;95476.22;4972244;28;20234;-88
2021/08/30 13:43:57;;;;;;;6.15;4.30;;;;;;;17.58;97.24;95478.41;4972238;28;20888;-89